Time;durP1;ratioP1;P1;durP2;ratioP2;P2;SDS_P1;SDS_P2;PMS_P1;PMS_P2;Temp;Humidity;BMP_temperature;BMP_pressure;BME280_temperature;BME280_humidity;BME280_pressure;Samples;Min_cycle;Max_cycle;Signal;HPM_P1;HPM_P2
2022/10/05 08:29:12;;;;;;;15.45;14.45;;;21.90;99.90;;;;;;6230118;22;20892;-82
2022/10/05 08:31:41;;;;;;;15.15;14.13;;;22.10;99.90;;;;;;6192605;23;20047;-85
2022/10/05 08:34:08;;;;;;;15.90;14.75;;;22.20;99.90;;;;;;6219371;23;20338;-86
2022/10/05 08:36:52;;;;;;;15.57;14.57;;;22.30;99.90;;;;;;6192669;23;20449;-85
2022/10/05 08:39:20;;;;;;;16.42;14.90;;;21.90;99.90;;;;;;6188552;23;20016;-86
2022/10/05 08:42:28;;;;;;;16.88;15.63;;;22.10;99.90;;;;;;6162972;23;20342;-87
2022/10/05 08:45:32;;;;;;;16.75;15.10;;;22.20;99.90;;;;;;6107667;23;20014;-87
2022/10/05 08:48:01;;;;;;;15.70;14.60;;;22.00;99.90;;;;;;6108115;23;20022;-87
2022/10/05 08:51:04;;;;;;;16.73;15.40;;;21.90;99.90;;;;;;6107686;23;20009;-86
2022/10/05 08:54:03;;;;;;;15.63;14.63;;;22.10;99.90;;;;;;6130983;23;20047;-84
2022/10/05 08:56:44;;;;;;;15.80;14.90;;;22.10;99.90;;;;;;6106341;23;20013;-86
2022/10/05 08:59:47;;;;;;;16.00;14.75;;;22.20;99.90;;;;;;6107428;23;20507;-86
2022/10/05 09:02:30;;;;;;;16.05;15.15;;;22.30;99.90;;;;;;6129211;23;20010;-86
2022/10/05 09:05:36;;;;;;;15.93;14.98;;;22.50;99.90;;;;;;6104075;23;20021;-85
2022/10/05 09:08:40;;;;;;;17.20;15.70;;;22.20;99.90;;;;;;6126531;23;20045;-84
2022/10/05 09:11:32;;;;;;;16.30;15.27;;;22.20;99.90;;;;;;6103071;23;20400;-85
2022/10/05 09:14:10;;;;;;;15.82;14.88;;;21.80;99.90;;;;;;6103982;23;20009;-85
2022/10/05 09:16:57;;;;;;;15.30;14.40;;;21.80;99.90;;;;;;6102762;23;20009;-86
2022/10/05 09:19:54;;;;;;;15.73;14.75;;;21.90;99.90;;;;;;6109345;23;20005;-85
2022/10/05 09:22:58;;;;;;;16.00;14.88;;;21.90;99.90;;;;;;6188049;23;20072;-85
2022/10/05 09:25:50;;;;;;;16.02;15.13;;;21.90;99.90;;;;;;6187501;23;20013;-85
2022/10/05 09:28:56;;;;;;;15.35;14.55;;;22.20;99.90;;;;;;6162977;23;20028;-85
2022/10/05 09:31:44;;;;;;;16.00;15.05;;;21.90;99.90;;;;;;6160019;23;20419;-85
2022/10/05 09:34:48;;;;;;;16.52;15.07;;;21.90;99.90;;;;;;6187576;23;20009;-83
2022/10/05 09:37:25;;;;;;;16.58;15.30;;;22.00;99.90;;;;;;6162902;23;20304;-85
2022/10/05 09:40:00;;;;;;;15.75;14.85;;;21.90;99.90;;;;;;6162528;23;20016;-84
2022/10/05 09:42:45;;;;;;;15.13;14.13;;;21.90;99.90;;;;;;6163689;23;20009;-83
2022/10/05 09:45:37;;;;;;;16.20;14.90;;;21.90;99.90;;;;;;6162968;23;20004;-84
2022/10/05 09:48:24;;;;;;;15.57;14.50;;;22.00;99.90;;;;;;6188237;23;20405;-85
2022/10/05 09:51:12;;;;;;;15.35;14.40;;;21.90;99.90;;;;;;6131782;23;20013;-86
2022/10/05 09:54:32;;;;;;;16.30;15.23;;;22.10;99.90;;;;;;6187619;23;20347;-86
2022/10/05 09:57:20;;;;;;;16.38;15.20;;;22.20;99.90;;;;;;6162172;23;20005;-86
2022/10/05 10:00:29;;;;;;;16.38;15.05;;;22.50;99.90;;;;;;6188009;23;20431;-85
2022/10/05 10:03:41;;;;;;;16.02;14.93;;;22.40;99.90;;;;;;6186978;23;20009;-85
2022/10/05 10:06:26;;;;;;;17.45;16.15;;;22.20;99.90;;;;;;6146548;23;20024;-84
2022/10/05 10:09:30;;;;;;;16.80;15.80;;;22.30;99.90;;;;;;6161796;23;20397;-84
2022/10/05 10:12:33;;;;;;;16.65;15.63;;;22.60;99.90;;;;;;6162008;23;20067;-83
2022/10/05 10:15:37;;;;;;;17.73;16.38;;;22.70;99.90;;;;;;6161425;23;20016;-84
2022/10/05 10:18:28;;;;;;;16.80;15.80;;;22.60;99.90;;;;;;6162675;23;20048;-83
2022/10/05 10:21:32;;;;;;;16.90;16.00;;;22.50;99.90;;;;;;6211585;23;20020;-84
2022/10/05 10:24:54;;;;;;;17.40;16.30;;;22.20;99.90;;;;;;6164098;23;20013;-83
2022/10/05 10:27:39;;;;;;;16.77;15.80;;;22.20;99.90;;;;;;6065767;23;20010;-84
2022/10/05 10:30:08;;;;;;;16.90;15.80;;;22.20;99.90;;;;;;6097347;23;20015;-84
2022/10/05 10:33:01;;;;;;;17.20;16.30;;;22.50;99.90;;;;;;6096119;23;20025;-84
2022/10/05 10:35:49;;;;;;;17.35;16.20;;;22.60;99.90;;;;;;6096460;23;20024;-83
2022/10/05 10:38:23;;;;;;;17.15;16.25;;;22.50;99.90;;;;;;6096104;23;20018;-85
2022/10/05 10:41:16;;;;;;;17.65;16.65;;;22.30;99.90;;;;;;6071863;23;20089;-84
2022/10/05 10:44:09;;;;;;;17.23;16.30;;;22.10;99.90;;;;;;6039586;23;20464;-85
2022/10/05 10:47:12;;;;;;;17.55;16.52;;;22.10;99.90;;;;;;6095990;23;20432;-85
2022/10/05 10:49:56;;;;;;;17.70;16.70;;;22.30;99.90;;;;;;6095903;23;20492;-85
2022/10/05 10:52:45;;;;;;;17.33;16.42;;;22.30;99.90;;;;;;6095900;23;20054;-85
2022/10/05 10:55:37;;;;;;;17.40;16.35;;;22.20;99.90;;;;;;6095857;23;20017;-82
2022/10/05 10:58:30;;;;;;;17.67;16.65;;;22.20;99.90;;;;;;6071632;23;20011;-83
2022/10/05 11:01:33;;;;;;;17.42;16.38;;;22.00;99.90;;;;;;6102864;23;20016;-81
2022/10/05 11:04:30;;;;;;;17.40;16.50;;;22.00;99.90;;;;;;6124350;23;20032;-83
2022/10/05 11:07:20;;;;;;;16.52;15.63;;;22.10;99.90;;;;;;6100496;23;20033;-83
2022/10/05 11:10:14;;;;;;;17.23;16.38;;;22.30;99.90;;;;;;6099975;23;20010;-81
2022/10/05 11:13:14;;;;;;;17.52;16.63;;;22.20;99.90;;;;;;6100065;23;20375;-83
2022/10/05 11:15:54;;;;;;;17.65;16.65;;;22.30;99.90;;;;;;6099963;23;20459;-81
2022/10/05 11:19:04;;;;;;;17.70;16.80;;;22.60;99.90;;;;;;6099721;23;20075;-84
2022/10/05 11:21:54;;;;;;;17.08;16.27;;;22.60;99.90;;;;;;6100447;23;20096;-85
2022/10/05 11:24:53;;;;;;;17.58;16.52;;;22.40;99.90;;;;;;6100440;23;20101;-84
2022/10/05 11:27:44;;;;;;;18.13;17.08;;;22.40;99.90;;;;;;6106480;23;20006;-88
2022/10/05 11:30:29;;;;;;;18.23;16.92;;;22.40;99.90;;;;;;6100590;23;20022;-90
2022/10/05 11:33:14;;;;;;;17.92;17.02;;;22.40;99.90;;;;;;6101129;23;20018;-92
2022/10/05 11:35:58;;;;;;;17.05;16.10;;;22.50;99.90;;;;;;6101111;23;20392;-93
2022/10/05 11:38:42;;;;;;;18.30;17.17;;;22.60;99.90;;;;;;6104083;23;20006;-91
2022/10/05 11:41:40;;;;;;;17.38;16.48;;;22.80;99.90;;;;;;6160770;23;20013;-91
2022/10/05 11:44:44;;;;;;;17.67;16.67;;;22.60;99.90;;;;;;6160603;23;20013;-90
2022/10/05 11:47:47;;;;;;;17.25;16.23;;;22.50;99.90;;;;;;6160896;23;20009;-91
2022/10/05 11:50:24;;;;;;;17.65;16.55;;;22.60;99.90;;;;;;6130643;23;20104;-89
2022/10/05 11:53:00;;;;;;;17.55;16.58;;;22.60;99.90;;;;;;6160598;23;20439;-92
2022/10/05 11:55:38;;;;;;;17.50;16.50;;;22.70;99.90;;;;;;6160634;23;20501;-90
2022/10/05 11:58:22;;;;;;;17.30;16.27;;;22.80;99.90;;;;;;6160740;23;20439;-90
2022/10/05 12:01:05;;;;;;;17.45;16.35;;;22.70;99.90;;;;;;6160384;23;20008;-93
2022/10/05 12:03:45;;;;;;;17.27;16.42;;;22.40;99.90;;;;;;6160394;23;20009;-90
2022/10/05 17:03:19;;;;;;;16.63;15.30;;;18.70;99.90;;;;;;6246655;22;20078;-92
2022/10/05 17:06:07;;;;;;;16.27;15.00;;;18.60;99.90;;;;;;6199012;23;20086;-93
2022/10/05 17:13:02;;;;;;;16.70;15.40;;;18.60;99.90;;;;;;6147256;22;20024;-93
2022/10/05 18:49:17;;;;;;;17.55;15.85;;;17.10;99.90;;;;;;6256527;22;20019;31
2022/10/05 18:52:19;;;;;;;18.33;16.52;;;17.10;99.90;;;;;;6191516;23;20096;-93
2022/10/05 18:54:53;;;;;;;15.40;14.20;;;17.00;99.90;;;;;;6168302;23;20009;-92
2022/10/05 18:57:48;;;;;;;14.90;13.60;;;17.10;99.90;;;;;;6170100;23;20015;-93
2022/10/05 19:00:24;;;;;;;13.60;12.60;;;17.00;99.90;;;;;;6167560;23;20009;-92
2022/10/05 19:03:01;;;;;;;14.07;12.88;;;17.00;99.90;;;;;;6167767;23;20242;-91
2022/10/05 19:05:57;;;;;;;13.52;12.52;;;17.10;99.90;;;;;;6167231;23;20082;-91
2022/10/05 19:08:38;;;;;;;14.55;13.55;;;17.00;99.90;;;;;;6165925;23;20508;-92
2022/10/05 19:11:27;;;;;;;14.32;13.18;;;17.00;99.90;;;;;;6165359;23;20095;-93
2022/10/05 19:14:09;;;;;;;14.48;13.30;;;17.00;99.90;;;;;;6165871;23;20043;-92
2022/10/05 19:16:54;;;;;;;14.50;13.50;;;17.00;99.90;;;;;;6169761;23;20443;-92
2022/10/05 20:14:14;;;;;;;12.32;11.23;;;16.70;99.90;;;;;;6138169;22;2458986;-92
2022/10/05 20:32:58;;;;;;;11.10;10.25;;;16.60;99.90;;;;;;6247716;22;20035;-94
2022/10/05 20:35:29;;;;;;;11.00;10.05;;;16.60;99.90;;;;;;6223008;23;20327;-93
2022/10/05 20:37:58;;;;;;;11.55;10.60;;;16.60;99.90;;;;;;6168313;23;20016;-93
2022/10/05 20:40:36;;;;;;;12.27;10.82;;;16.60;99.90;;;;;;6167313;23;20001;-93
2022/10/05 20:43:02;;;;;;;12.20;11.10;;;16.60;99.90;;;;;;6167150;23;20388;-92
2022/10/05 20:45:29;;;;;;;12.32;10.57;;;16.60;99.90;;;;;;6167297;23;20008;-92
2022/10/05 20:47:56;;;;;;;10.98;10.02;;;16.60;99.90;;;;;;6167422;23;20015;-92
2022/10/05 20:50:26;;;;;;;11.38;10.23;;;16.50;99.90;;;;;;6167157;23;20079;-92
2022/10/05 20:52:53;;;;;;;11.30;10.50;;;16.50;99.90;;;;;;6166988;23;20016;-92
2022/10/05 20:55:19;;;;;;;11.25;10.40;;;16.50;99.90;;;;;;6167211;23;20005;-91
2022/10/05 20:57:50;;;;;;;11.95;10.82;;;16.40;99.90;;;;;;6167062;23;20005;-92
2022/10/05 21:00:16;;;;;;;10.73;9.75;;;16.40;99.90;;;;;;6167332;23;20009;-92
2022/10/05 21:02:44;;;;;;;11.02;10.02;;;16.40;99.90;;;;;;6167492;23;20004;-92
2022/10/05 21:05:10;;;;;;;11.00;10.10;;;16.40;99.90;;;;;;6169473;23;20012;-92
2022/10/05 21:07:37;;;;;;;11.55;10.32;;;16.30;99.90;;;;;;6167712;23;20024;-92
2022/10/05 21:10:08;;;;;;;10.25;9.45;;;16.30;99.90;;;;;;6168486;23;20377;-92
2022/10/05 21:12:38;;;;;;;11.02;10.23;;;16.20;99.90;;;;;;6192404;23;20024;-92
2022/10/05 21:15:11;;;;;;;13.88;10.40;;;16.20;99.90;;;;;;6168227;23;20005;-92
2022/10/05 21:17:38;;;;;;;11.02;10.07;;;16.20;99.90;;;;;;6168798;23;20009;-92
2022/10/05 21:20:10;;;;;;;13.60;12.15;;;16.10;99.90;;;;;;6168040;23;20090;-92
2022/10/05 21:22:49;;;;;;;16.58;12.18;;;16.00;99.90;;;;;;6167849;23;20068;-93
2022/10/05 21:25:19;;;;;;;12.85;11.20;;;15.90;99.90;;;;;;6168508;23;20296;-92
2022/10/05 21:27:47;;;;;;;12.90;11.43;;;15.80;99.90;;;;;;6168604;23;20004;-92
2022/10/05 21:30:14;;;;;;;14.07;11.05;;;15.60;99.90;;;;;;6170660;23;20016;-91
2022/10/05 21:33:02;;;;;;;11.55;10.43;;;15.50;99.90;;;;;;6167748;23;20024;-92
2022/10/05 21:35:28;;;;;;;11.20;9.98;;;15.40;99.90;;;;;;6162135;23;20441;-93
2022/10/05 21:37:55;;;;;;;11.65;10.05;;;15.40;99.90;;;;;;6186683;23;20442;-92
2022/10/05 21:40:22;;;;;;;12.75;10.27;;;15.40;99.90;;;;;;6162092;23;20446;-91
2022/10/05 21:42:49;;;;;;;11.32;10.15;;;15.40;99.90;;;;;;6164471;23;20033;-92
2022/10/05 21:45:19;;;;;;;11.80;10.32;;;15.30;99.90;;;;;;6162921;23;20055;-92
2022/10/05 21:47:48;;;;;;;11.13;9.93;;;15.40;99.90;;;;;;6163637;23;20009;-92
2022/10/05 21:50:20;;;;;;;11.95;10.68;;;15.30;99.90;;;;;;6163712;23;20005;-92
2022/10/05 21:52:52;;;;;;;13.98;10.38;;;15.30;99.90;;;;;;6162755;23;20071;-92
2022/10/05 21:55:20;;;;;;;16.40;10.50;;;15.20;99.90;;;;;;6164703;23;20009;-93
2022/10/05 21:57:47;;;;;;;21.60;13.05;;;15.20;99.90;;;;;;6162547;23;20029;-92
2022/10/05 22:00:15;;;;;;;14.50;11.80;;;15.10;99.90;;;;;;6162782;23;20008;-92
2022/10/05 22:02:42;;;;;;;15.45;11.00;;;15.00;99.90;;;;;;6162889;23;20001;-92
2022/10/05 22:05:09;;;;;;;14.60;10.85;;;14.90;99.90;;;;;;6163089;23;20039;-92
2022/10/05 22:07:36;;;;;;;15.77;11.18;;;14.90;99.90;;;;;;6163591;23;20005;-91
2022/10/05 22:10:12;;;;;;;14.07;10.15;;;14.80;99.90;;;;;;6162827;23;20013;-92
2022/10/05 22:13:25;;;;;;;12.18;10.30;;;14.80;99.90;;;;;;6164247;23;20505;-92
2022/10/05 22:16:59;;;;;;;17.23;10.70;;;14.80;99.90;;;;;;6197473;23;20435;-93
2022/10/05 22:19:51;;;;;;;12.85;9.55;;;14.70;99.90;;;;;;6144794;23;20025;-92
2022/10/05 22:22:58;;;;;;;;;;;;;;;;;;;;;
2022/10/05 22:29:36;;;;;;;10.90;9.20;;;14.60;99.90;;;;;;6052643;23;20058;-92
2022/10/05 22:32:16;;;;;;;9.95;8.70;;;14.60;99.90;;;;;;6015239;23;20014;-91
2022/10/05 22:35:22;;;;;;;9.77;8.77;;;14.60;99.90;;;;;;6034621;23;20030;-92
2022/10/05 22:38:20;;;;;;;;;;;;;;;;;;;;;
2022/10/05 22:41:11;;;;;;;9.00;8.10;;;14.50;99.90;;;;;;6044064;23;20007;-92
2022/10/05 22:43:38;;;;;;;9.18;8.35;;;14.50;99.90;;;;;;6056467;23;20044;-92
2022/10/05 22:46:48;;;;;;;;;;;;;;;;;;;;;
2022/10/05 22:55:15;;;;;;;13.60;8.30;;;14.40;99.90;;;;;;6255466;22;20024;-92
2022/10/05 22:58:00;;;;;;;9.00;8.15;;;14.40;99.90;;;;;;6203228;23;20035;-93
2022/10/05 23:01:33;;;;;;;16.83;9.85;;;14.30;99.90;;;;;;6214269;23;20008;-92
2022/10/05 23:12:11;;;;;;;11.13;6.43;;;14.20;99.90;;;;;;6026119;23;20031;-92
2022/10/05 23:18:26;;;;;;;13.07;7.40;;;14.10;99.90;;;;;;6001321;24;20016;-91
2022/10/05 23:20:54;;;;;;;10.73;7.63;;;14.10;99.90;;;;;;5963859;24;20012;-92
2022/10/05 23:23:22;;;;;;;12.95;7.60;;;14.10;99.90;;;;;;5961512;24;20012;-92
2022/10/05 23:25:49;;;;;;;17.02;7.85;;;14.10;99.90;;;;;;5959731;24;20019;-92
2022/10/05 23:28:16;;;;;;;11.43;6.65;;;14.10;99.90;;;;;;5959459;24;20034;-92
2022/10/05 23:30:43;;;;;;;14.07;7.20;;;14.10;99.90;;;;;;5959837;24;20052;-92
2022/10/05 23:33:10;;;;;;;10.00;7.53;;;14.00;99.90;;;;;;5961192;24;20069;-92
2022/10/05 23:35:36;;;;;;;11.80;7.07;;;14.00;99.90;;;;;;5985031;24;20008;-91
2022/10/05 23:38:05;;;;;;;19.92;9.07;;;14.00;99.90;;;;;;5960756;24;20008;-91
2022/10/05 23:40:32;;;;;;;17.20;9.02;;;14.00;99.90;;;;;;5961207;23;20032;-92
2022/10/05 23:54:55;;;;;;;20.05;8.85;;;14.00;99.90;;;;;;6264362;22;20024;-91
